aviador You're here:

ZBTJ Decoded Metar

TIANJIN in CHINA
Report Time2017-06-27 05:00:00
UTC Time2017-06-27 05:23:23
Flight Rules vfr VFR
Wind160° at 8 kt
W.Decomp.*RWY 16: 8.0 kt HW 0.8 kt RCW
W.Rank160° ranks 2
Current wind is above 160° avg. (6.4)
Visibility8000 m
Phenomena:N/A
Clouds:N/A
Expected CloudBase > 6,400 ft AGL from Temp-Dew spread
CeilingNone
Temp34°C (ISA +19)
Dew Point18°C (39% RH)
Heat Index35.2°C
AAT33.9°C
QNH1006 hPa
Density Alt2,680 ft
Elevation10 ft
Report Wrong Elevation
Raw Report
ZBTJ 270500Z 16004MPS 130V210 8000 NSC 34/18 Q1006 NOSIG=

Extra information for ZBTJ:More info

Metar Taf Metar & Taf Last 4 Metars F.Rules Stats Wind Profile Meteogram Temp Stats Airport Information Weather charts Add Link Nearby VenuesMetar ALERT Operation Metar Decoded Social comments